sensor_id;sensor_type;location;lat;lon;timestamp;temperature;humidity
8372;DHT22;4223;48.724;8.982;2022-07-12T00:01:23;14.10;1.00
8372;DHT22;4223;48.724;8.982;2022-07-12T00:03:50;14.10;1.00
8372;DHT22;4223;48.724;8.982;2022-07-12T00:06:18;14.10;1.00
8372;DHT22;4223;48.724;8.982;2022-07-12T00:08:45;14.10;1.00
8372;DHT22;4223;48.724;8.982;2022-07-12T00:11:11;14.00;1.00
8372;DHT22;4223;48.724;8.982;2022-07-12T00:13:38;14.00;1.00
8372;DHT22;4223;48.724;8.982;2022-07-12T00:16:06;14.00;1.00
8372;DHT22;4223;48.724;8.982;2022-07-12T00:18:33;14.00;1.00
8372;DHT22;4223;48.724;8.982;2022-07-12T00:20:59;14.10;1.00
8372;DHT22;4223;48.724;8.982;2022-07-12T00:23:28;14.00;1.00
8372;DHT22;4223;48.724;8.982;2022-07-12T00:25:54;13.90;13.00
8372;DHT22;4223;48.724;8.982;2022-07-12T00:28:21;14.00;4.40
8372;DHT22;4223;48.724;8.982;2022-07-12T00:30:48;13.90;8.80
8372;DHT22;4223;48.724;8.982;2022-07-12T00:33:15;13.80;15.60
8372;DHT22;4223;48.724;8.982;2022-07-12T00:35:42;13.90;7.90
8372;DHT22;4223;48.724;8.982;2022-07-12T00:38:08;13.80;1.40
8372;DHT22;4223;48.724;8.982;2022-07-12T00:40:39;13.80;7.30
8372;DHT22;4223;48.724;8.982;2022-07-12T00:43:06;13.70;13.10
8372;DHT22;4223;48.724;8.982;2022-07-12T00:45:33;13.80;21.40
8372;DHT22;4223;48.724;8.982;2022-07-12T00:48:00;13.70;2.30
8372;DHT22;4223;48.724;8.982;2022-07-12T00:50:27;13.70;1.00
8372;DHT22;4223;48.724;8.982;2022-07-12T00:52:55;13.70;1.00
8372;DHT22;4223;48.724;8.982;2022-07-12T00:55:23;13.70;1.00
8372;DHT22;4223;48.724;8.982;2022-07-12T00:57:51;13.70;17.60
8372;DHT22;4223;48.724;8.982;2022-07-12T01:00:22;13.70;18.10
8372;DHT22;4223;48.724;8.982;2022-07-12T01:02:49;13.60;16.90
8372;DHT22;4223;48.724;8.982;2022-07-12T01:05:17;13.50;24.90
8372;DHT22;4223;48.724;8.982;2022-07-12T01:07:44;13.50;31.00
8372;DHT22;4223;48.724;8.982;2022-07-12T01:10:11;13.60;36.90
8372;DHT22;4223;48.724;8.982;2022-07-12T01:12:38;13.60;23.30
8372;DHT22;4223;48.724;8.982;2022-07-12T01:15:08;13.60;39.10
8372;DHT22;4223;48.724;8.982;2022-07-12T01:17:35;13.60;40.80
8372;DHT22;4223;48.724;8.982;2022-07-12T01:20:03;13.50;24.10
8372;DHT22;4223;48.724;8.982;2022-07-12T01:22:32;13.60;29.80
8372;DHT22;4223;48.724;8.982;2022-07-12T01:25:02;13.60;35.00
8372;DHT22;4223;48.724;8.982;2022-07-12T01:27:29;13.60;26.20
8372;DHT22;4223;48.724;8.982;2022-07-12T01:29:57;13.50;12.80
8372;DHT22;4223;48.724;8.982;2022-07-12T01:32:23;13.50;27.00
8372;DHT22;4223;48.724;8.982;2022-07-12T01:34:52;13.50;29.70
8372;DHT22;4223;48.724;8.982;2022-07-12T01:37:20;13.50;22.60
8372;DHT22;4223;48.724;8.982;2022-07-12T01:39:49;13.40;35.20
8372;DHT22;4223;48.724;8.982;2022-07-12T01:42:19;13.50;18.30
8372;DHT22;4223;48.724;8.982;2022-07-12T01:44:48;13.40;34.20
8372;DHT22;4223;48.724;8.982;2022-07-12T01:47:17;13.40;23.70
8372;DHT22;4223;48.724;8.982;2022-07-12T01:49:44;13.40;32.70
8372;DHT22;4223;48.724;8.982;2022-07-12T01:52:11;13.40;45.10
8372;DHT22;4223;48.724;8.982;2022-07-12T01:54:38;13.40;33.90
8372;DHT22;4223;48.724;8.982;2022-07-12T01:57:05;13.30;24.50
8372;DHT22;4223;48.724;8.982;2022-07-12T01:59:34;13.20;17.40
8372;DHT22;4223;48.724;8.982;2022-07-12T02:02:02;13.20;42.40
8372;DHT22;4223;48.724;8.982;2022-07-12T02:04:33;13.30;30.80
8372;DHT22;4223;48.724;8.982;2022-07-12T02:07:00;13.10;41.10
8372;DHT22;4223;48.724;8.982;2022-07-12T02:09:27;13.10;18.60
8372;DHT22;4223;48.724;8.982;2022-07-12T02:11:54;13.00;27.30
8372;DHT22;4223;48.724;8.982;2022-07-12T02:14:21;13.00;17.30
8372;DHT22;4223;48.724;8.982;2022-07-12T02:16:49;12.90;23.90
8372;DHT22;4223;48.724;8.982;2022-07-12T02:19:16;12.90;22.30
8372;DHT22;4223;48.724;8.982;2022-07-12T02:21:43;12.80;15.90
8372;DHT22;4223;48.724;8.982;2022-07-12T02:24:10;12.80;42.00
8372;DHT22;4223;48.724;8.982;2022-07-12T02:26:37;12.80;39.30
8372;DHT22;4223;48.724;8.982;2022-07-12T02:29:05;12.80;38.30
8372;DHT22;4223;48.724;8.982;2022-07-12T02:31:32;12.80;34.60
8372;DHT22;4223;48.724;8.982;2022-07-12T02:34:00;12.80;34.90
8372;DHT22;4223;48.724;8.982;2022-07-12T02:36:27;12.70;18.10
8372;DHT22;4223;48.724;8.982;2022-07-12T02:38:54;12.70;22.80
8372;DHT22;4223;48.724;8.982;2022-07-12T02:41:21;12.70;38.10
8372;DHT22;4223;48.724;8.982;2022-07-12T02:43:48;12.70;21.00
8372;DHT22;4223;48.724;8.982;2022-07-12T02:46:14;12.60;14.80
8372;DHT22;4223;48.724;8.982;2022-07-12T02:48:41;12.60;7.60
8372;DHT22;4223;48.724;8.982;2022-07-12T02:51:12;12.50;22.40
8372;DHT22;4223;48.724;8.982;2022-07-12T02:53:39;12.60;11.80
8372;DHT22;4223;48.724;8.982;2022-07-12T02:56:07;12.60;23.50
8372;DHT22;4223;48.724;8.982;2022-07-12T02:58:34;12.60;18.40
8372;DHT22;4223;48.724;8.982;2022-07-12T03:01:01;12.60;20.60
8372;DHT22;4223;48.724;8.982;2022-07-12T03:03:28;12.50;21.90
8372;DHT22;4223;48.724;8.982;2022-07-12T03:05:55;12.50;17.50
8372;DHT22;4223;48.724;8.982;2022-07-12T03:08:24;12.50;23.70
8372;DHT22;4223;48.724;8.982;2022-07-12T03:10:51;12.40;31.30
8372;DHT22;4223;48.724;8.982;2022-07-12T03:13:18;12.40;16.50
8372;DHT22;4223;48.724;8.982;2022-07-12T03:15:45;12.40;22.80
8372;DHT22;4223;48.724;8.982;2022-07-12T03:18:12;12.40;17.90
8372;DHT22;4223;48.724;8.982;2022-07-12T03:20:39;12.50;37.80
8372;DHT22;4223;48.724;8.982;2022-07-12T03:23:06;12.50;32.50
8372;DHT22;4223;48.724;8.982;2022-07-12T03:25:34;12.40;27.70
8372;DHT22;4223;48.724;8.982;2022-07-12T03:28:01;12.50;39.80
8372;DHT22;4223;48.724;8.982;2022-07-12T03:30:28;12.50;51.50
8372;DHT22;4223;48.724;8.982;2022-07-12T03:32:55;12.50;59.90
8372;DHT22;4223;48.724;8.982;2022-07-12T03:35:22;12.50;48.90
8372;DHT22;4223;48.724;8.982;2022-07-12T03:37:51;12.60;67.20
8372;DHT22;4223;48.724;8.982;2022-07-12T03:40:19;12.60;57.10
8372;DHT22;4223;48.724;8.982;2022-07-12T03:42:48;12.60;75.50
8372;DHT22;4223;48.724;8.982;2022-07-12T03:45:15;12.60;64.30
8372;DHT22;4223;48.724;8.982;2022-07-12T03:47:42;12.60;59.50
8372;DHT22;4223;48.724;8.982;2022-07-12T03:50:11;12.60;59.60
8372;DHT22;4223;48.724;8.982;2022-07-12T03:52:39;12.60;55.10
8372;DHT22;4223;48.724;8.982;2022-07-12T03:55:06;12.60;79.10
8372;DHT22;4223;48.724;8.982;2022-07-12T03:57:34;12.60;60.40
8372;DHT22;4223;48.724;8.982;2022-07-12T04:00:04;12.60;53.20
8372;DHT22;4223;48.724;8.982;2022-07-12T04:02:33;12.60;56.40
8372;DHT22;4223;48.724;8.982;2022-07-12T04:05:00;12.60;51.40
8372;DHT22;4223;48.724;8.982;2022-07-12T04:07:27;12.50;62.80
8372;DHT22;4223;48.724;8.982;2022-07-12T04:09:54;12.50;62.30
8372;DHT22;4223;48.724;8.982;2022-07-12T04:12:20;12.50;70.80
8372;DHT22;4223;48.724;8.982;2022-07-12T04:14:47;12.60;69.20
8372;DHT22;4223;48.724;8.982;2022-07-12T04:17:16;12.50;74.80
8372;DHT22;4223;48.724;8.982;2022-07-12T04:19:42;12.50;72.10
8372;DHT22;4223;48.724;8.982;2022-07-12T04:22:09;12.60;72.70
8372;DHT22;4223;48.724;8.982;2022-07-12T04:24:36;12.70;79.60
8372;DHT22;4223;48.724;8.982;2022-07-12T04:27:03;12.60;80.50
8372;DHT22;4223;48.724;8.982;2022-07-12T04:29:30;12.70;73.40
8372;DHT22;4223;48.724;8.982;2022-07-12T04:31:57;12.70;71.80
8372;DHT22;4223;48.724;8.982;2022-07-12T04:34:25;12.70;71.40
8372;DHT22;4223;48.724;8.982;2022-07-12T04:36:52;12.70;68.90
8372;DHT22;4223;48.724;8.982;2022-07-12T04:39:20;12.70;66.30
8372;DHT22;4223;48.724;8.982;2022-07-12T04:41:47;12.80;79.80
8372;DHT22;4223;48.724;8.982;2022-07-12T04:44:13;12.80;79.60
8372;DHT22;4223;48.724;8.982;2022-07-12T04:46:40;12.90;85.00
8372;DHT22;4223;48.724;8.982;2022-07-12T04:49:08;12.90;67.90
8372;DHT22;4223;48.724;8.982;2022-07-12T04:51:36;12.90;62.20
8372;DHT22;4223;48.724;8.982;2022-07-12T04:54:03;12.90;62.30
8372;DHT22;4223;48.724;8.982;2022-07-12T04:56:30;13.00;60.30
8372;DHT22;4223;48.724;8.982;2022-07-12T04:58:57;13.00;65.30
8372;DHT22;4223;48.724;8.982;2022-07-12T05:01:23;13.10;60.20
8372;DHT22;4223;48.724;8.982;2022-07-12T05:03:51;13.20;65.60
8372;DHT22;4223;48.724;8.982;2022-07-12T05:06:17;13.30;64.10
8372;DHT22;4223;48.724;8.982;2022-07-12T05:08:46;13.30;52.10
8372;DHT22;4223;48.724;8.982;2022-07-12T05:11:12;13.40;61.40
8372;DHT22;4223;48.724;8.982;2022-07-12T05:13:39;13.50;64.60
8372;DHT22;4223;48.724;8.982;2022-07-12T05:16:07;13.60;70.10
8372;DHT22;4223;48.724;8.982;2022-07-12T05:18:34;13.70;71.50
8372;DHT22;4223;48.724;8.982;2022-07-12T05:21:02;13.80;70.80
8372;DHT22;4223;48.724;8.982;2022-07-12T05:23:29;13.90;65.30
8372;DHT22;4223;48.724;8.982;2022-07-12T05:25:57;13.90;70.70
8372;DHT22;4223;48.724;8.982;2022-07-12T05:28:24;14.00;67.40
8372;DHT22;4223;48.724;8.982;2022-07-12T05:30:51;14.10;70.40
8372;DHT22;4223;48.724;8.982;2022-07-12T05:33:18;14.20;65.60
8372;DHT22;4223;48.724;8.982;2022-07-12T05:35:44;14.20;60.00
8372;DHT22;4223;48.724;8.982;2022-07-12T05:38:11;14.30;56.50
8372;DHT22;4223;48.724;8.982;2022-07-12T05:40:38;14.40;58.30
8372;DHT22;4223;48.724;8.982;2022-07-12T05:43:06;14.50;52.40
8372;DHT22;4223;48.724;8.982;2022-07-12T05:45:33;14.60;36.30
8372;DHT22;4223;48.724;8.982;2022-07-12T05:48:00;14.80;41.00
8372;DHT22;4223;48.724;8.982;2022-07-12T05:50:27;14.80;30.70
8372;DHT22;4223;48.724;8.982;2022-07-12T05:52:53;14.90;33.90
8372;DHT22;4223;48.724;8.982;2022-07-12T05:55:38;15.00;28.60
8372;DHT22;4223;48.724;8.982;2022-07-12T05:58:06;15.10;25.30
8372;DHT22;4223;48.724;8.982;2022-07-12T06:00:33;15.20;7.80
8372;DHT22;4223;48.724;8.982;2022-07-12T06:03:00;15.30;1.00
8372;DHT22;4223;48.724;8.982;2022-07-12T06:05:27;15.40;7.00
8372;DHT22;4223;48.724;8.982;2022-07-12T06:07:54;15.50;1.00
8372;DHT22;4223;48.724;8.982;2022-07-12T06:10:21;15.60;4.80
8372;DHT22;4223;48.724;8.982;2022-07-12T06:12:48;15.70;1.00
8372;DHT22;4223;48.724;8.982;2022-07-12T06:15:16;15.80;1.00
8372;DHT22;4223;48.724;8.982;2022-07-12T06:17:43;15.90;1.00
8372;DHT22;4223;48.724;8.982;2022-07-12T06:20:11;16.00;1.00
8372;DHT22;4223;48.724;8.982;2022-07-12T06:22:37;16.20;1.00
8372;DHT22;4223;48.724;8.982;2022-07-12T06:25:05;16.30;1.00
8372;DHT22;4223;48.724;8.982;2022-07-12T06:27:33;16.50;99.90
8372;DHT22;4223;48.724;8.982;2022-07-12T06:29:59;16.60;99.90
8372;DHT22;4223;48.724;8.982;2022-07-12T06:32:28;16.60;1.00
8372;DHT22;4223;48.724;8.982;2022-07-12T06:34:54;16.80;1.00
8372;DHT22;4223;48.724;8.982;2022-07-12T06:37:22;16.90;1.00
8372;DHT22;4223;48.724;8.982;2022-07-12T06:39:49;17.10;1.00
8372;DHT22;4223;48.724;8.982;2022-07-12T06:42:16;17.20;99.90
8372;DHT22;4223;48.724;8.982;2022-07-12T06:44:43;17.30;99.90
8372;DHT22;4223;48.724;8.982;2022-07-12T06:47:09;17.40;1.00
8372;DHT22;4223;48.724;8.982;2022-07-12T06:49:38;17.40;1.00
8372;DHT22;4223;48.724;8.982;2022-07-12T06:52:05;17.50;99.90
8372;DHT22;4223;48.724;8.982;2022-07-12T06:54:32;17.70;99.90
8372;DHT22;4223;48.724;8.982;2022-07-12T06:56:59;17.80;1.00
8372;DHT22;4223;48.724;8.982;2022-07-12T06:59:26;17.80;34.80
8372;DHT22;4223;48.724;8.982;2022-07-12T07:01:53;18.00;99.90
8372;DHT22;4223;48.724;8.982;2022-07-12T07:04:21;18.00;99.90
8372;DHT22;4223;48.724;8.982;2022-07-12T07:06:49;18.10;99.90
8372;DHT22;4223;48.724;8.982;2022-07-12T07:09:16;18.40;99.90
8372;DHT22;4223;48.724;8.982;2022-07-12T07:11:44;18.60;1.00
8372;DHT22;4223;48.724;8.982;2022-07-12T07:14:11;18.70;1.00
8372;DHT22;4223;48.724;8.982;2022-07-12T07:16:37;18.80;99.90
8372;DHT22;4223;48.724;8.982;2022-07-12T07:19:04;19.00;99.90
8372;DHT22;4223;48.724;8.982;2022-07-12T07:21:32;19.30;99.90
8372;DHT22;4223;48.724;8.982;2022-07-12T07:24:00;19.40;99.90
8372;DHT22;4223;48.724;8.982;2022-07-12T07:26:27;19.50;12.50
8372;DHT22;4223;48.724;8.982;2022-07-12T07:28:54;19.60;1.00
8372;DHT22;4223;48.724;8.982;2022-07-12T07:31:38;19.70;1.00
8372;DHT22;4223;48.724;8.982;2022-07-12T07:34:05;20.00;1.00
8372;DHT22;4223;48.724;8.982;2022-07-12T07:36:32;20.30;1.00
8372;DHT22;4223;48.724;8.982;2022-07-12T07:39:00;20.50;1.00
8372;DHT22;4223;48.724;8.982;2022-07-12T07:41:27;20.80;1.00
8372;DHT22;4223;48.724;8.982;2022-07-12T07:43:54;21.00;1.00
8372;DHT22;4223;48.724;8.982;2022-07-12T07:46:21;21.30;1.00
8372;DHT22;4223;48.724;8.982;2022-07-12T07:48:48;21.50;1.00
8372;DHT22;4223;48.724;8.982;2022-07-12T07:51:15;21.50;1.00
8372;DHT22;4223;48.724;8.982;2022-07-12T07:53:42;21.80;99.90
8372;DHT22;4223;48.724;8.982;2022-07-12T07:56:10;22.40;99.90
8372;DHT22;4223;48.724;8.982;2022-07-12T07:58:37;22.80;99.90
8372;DHT22;4223;48.724;8.982;2022-07-12T08:01:04;23.50;99.90
8372;DHT22;4223;48.724;8.982;2022-07-12T08:03:31;24.20;99.90
8372;DHT22;4223;48.724;8.982;2022-07-12T08:05:58;24.40;99.90
8372;DHT22;4223;48.724;8.982;2022-07-12T08:08:26;25.10;99.90
8372;DHT22;4223;48.724;8.982;2022-07-12T08:10:53;25.40;99.90
8372;DHT22;4223;48.724;8.982;2022-07-12T08:13:21;25.20;99.90
8372;DHT22;4223;48.724;8.982;2022-07-12T08:15:48;25.30;99.90
8372;DHT22;4223;48.724;8.982;2022-07-12T08:18:15;25.90;99.90
8372;DHT22;4223;48.724;8.982;2022-07-12T08:20:42;25.70;99.90
8372;DHT22;4223;48.724;8.982;2022-07-12T08:23:09;25.70;99.90
8372;DHT22;4223;48.724;8.982;2022-07-12T08:25:36;26.30;99.90
8372;DHT22;4223;48.724;8.982;2022-07-12T08:28:04;26.20;99.90
8372;DHT22;4223;48.724;8.982;2022-07-12T08:30:32;25.60;99.90
8372;DHT22;4223;48.724;8.982;2022-07-12T08:32:59;26.10;99.90
8372;DHT22;4223;48.724;8.982;2022-07-12T08:35:26;26.40;99.90
8372;DHT22;4223;48.724;8.982;2022-07-12T08:37:53;25.30;99.90
8372;DHT22;4223;48.724;8.982;2022-07-12T08:40:20;23.80;99.90
8372;DHT22;4223;48.724;8.982;2022-07-12T08:42:47;24.20;99.90
8372;DHT22;4223;48.724;8.982;2022-07-12T08:45:14;24.80;99.90
8372;DHT22;4223;48.724;8.982;2022-07-12T08:47:42;25.30;99.90
8372;DHT22;4223;48.724;8.982;2022-07-12T08:50:11;25.80;99.90
8372;DHT22;4223;48.724;8.982;2022-07-12T08:52:40;26.30;99.90
8372;DHT22;4223;48.724;8.982;2022-07-12T08:55:24;26.30;99.90
8372;DHT22;4223;48.724;8.982;2022-07-12T08:57:52;25.60;99.90
8372;DHT22;4223;48.724;8.982;2022-07-12T09:00:20;24.50;99.90
8372;DHT22;4223;48.724;8.982;2022-07-12T09:02:50;24.20;99.90
8372;DHT22;4223;48.724;8.982;2022-07-12T09:05:19;23.60;99.90
8372;DHT22;4223;48.724;8.982;2022-07-12T09:07:46;23.20;99.90
8372;DHT22;4223;48.724;8.982;2022-07-12T09:10:16;23.00;99.90
8372;DHT22;4223;48.724;8.982;2022-07-12T09:12:44;22.80;99.90
8372;DHT22;4223;48.724;8.982;2022-07-12T09:15:16;22.30;99.90
8372;DHT22;4223;48.724;8.982;2022-07-12T09:18:00;22.20;99.90
8372;DHT22;4223;48.724;8.982;2022-07-12T09:20:28;23.60;99.90
8372;DHT22;4223;48.724;8.982;2022-07-12T09:22:56;23.70;99.90
8372;DHT22;4223;48.724;8.982;2022-07-12T09:25:24;24.00;99.90
8372;DHT22;4223;48.724;8.982;2022-07-12T09:27:52;23.70;99.90
8372;DHT22;4223;48.724;8.982;2022-07-12T09:30:20;23.60;99.90
8372;DHT22;4223;48.724;8.982;2022-07-12T09:32:53;24.40;99.90
8372;DHT22;4223;48.724;8.982;2022-07-12T09:35:39;25.10;99.90
8372;DHT22;4223;48.724;8.982;2022-07-12T09:38:25;25.20;99.90
8372;DHT22;4223;48.724;8.982;2022-07-12T09:40:53;26.00;99.90
8372;DHT22;4223;48.724;8.982;2022-07-12T09:43:22;26.30;99.90
8372;DHT22;4223;48.724;8.982;2022-07-12T09:45:49;25.90;99.90
8372;DHT22;4223;48.724;8.982;2022-07-12T09:48:16;26.00;99.90
8372;DHT22;4223;48.724;8.982;2022-07-12T09:50:47;26.30;99.90
8372;DHT22;4223;48.724;8.982;2022-07-12T09:53:20;26.50;99.90
8372;DHT22;4223;48.724;8.982;2022-07-12T09:55:51;26.90;99.90
8372;DHT22;4223;48.724;8.982;2022-07-12T09:58:32;27.30;99.90
8372;DHT22;4223;48.724;8.982;2022-07-12T10:01:00;27.50;99.90
8372;DHT22;4223;48.724;8.982;2022-07-12T10:03:29;27.10;99.90
8372;DHT22;4223;48.724;8.982;2022-07-12T10:06:00;27.60;99.90
8372;DHT22;4223;48.724;8.982;2022-07-12T10:08:28;27.40;99.90
8372;DHT22;4223;48.724;8.982;2022-07-12T10:10:56;26.80;99.90
8372;DHT22;4223;48.724;8.982;2022-07-12T10:13:23;26.50;99.90
8372;DHT22;4223;48.724;8.982;2022-07-12T10:15:51;27.00;99.90
8372;DHT22;4223;48.724;8.982;2022-07-12T10:18:20;26.30;99.90
8372;DHT22;4223;48.724;8.982;2022-07-12T10:20:48;26.80;99.90
8372;DHT22;4223;48.724;8.982;2022-07-12T10:23:31;27.00;99.90
8372;DHT22;4223;48.724;8.982;2022-07-12T10:26:00;27.30;99.90
8372;DHT22;4223;48.724;8.982;2022-07-12T10:29:00;27.40;99.90
8372;DHT22;4223;48.724;8.982;2022-07-12T10:31:33;27.40;99.90
8372;DHT22;4223;48.724;8.982;2022-07-12T10:34:11;27.60;99.90
8372;DHT22;4223;48.724;8.982;2022-07-12T10:37:09;27.90;99.90
8372;DHT22;4223;48.724;8.982;2022-07-12T10:39:38;27.70;99.90
8372;DHT22;4223;48.724;8.982;2022-07-12T10:42:18;27.30;99.90
8372;DHT22;4223;48.724;8.982;2022-07-12T10:44:46;27.10;99.90
8372;DHT22;4223;48.724;8.982;2022-07-12T10:47:15;27.00;99.90
8372;DHT22;4223;48.724;8.982;2022-07-12T10:49:46;27.30;99.90
8372;DHT22;4223;48.724;8.982;2022-07-12T10:52:23;27.30;99.90
8372;DHT22;4223;48.724;8.982;2022-07-12T10:55:17;27.40;99.90
8372;DHT22;4223;48.724;8.982;2022-07-12T10:57:45;27.70;99.90
8372;DHT22;4223;48.724;8.982;2022-07-12T11:00:17;27.50;99.90
8372;DHT22;4223;48.724;8.982;2022-07-12T11:02:45;26.90;99.90
8372;DHT22;4223;48.724;8.982;2022-07-12T11:05:12;27.10;99.90
8372;DHT22;4223;48.724;8.982;2022-07-12T11:07:39;26.90;99.90
8372;DHT22;4223;48.724;8.982;2022-07-12T11:10:06;26.70;99.90
8372;DHT22;4223;48.724;8.982;2022-07-12T11:12:35;26.70;99.90
8372;DHT22;4223;48.724;8.982;2022-07-12T11:15:03;27.00;99.90
8372;DHT22;4223;48.724;8.982;2022-07-12T11:17:32;26.80;99.90
8372;DHT22;4223;48.724;8.982;2022-07-12T11:20:08;26.90;99.90
8372;DHT22;4223;48.724;8.982;2022-07-12T11:22:37;26.80;99.90
8372;DHT22;4223;48.724;8.982;2022-07-12T11:25:06;26.70;99.90
8372;DHT22;4223;48.724;8.982;2022-07-12T11:27:35;26.80;99.90
8372;DHT22;4223;48.724;8.982;2022-07-12T11:30:03;26.90;99.90
8372;DHT22;4223;48.724;8.982;2022-07-12T11:32:37;26.90;99.90
8372;DHT22;4223;48.724;8.982;2022-07-12T11:35:17;26.90;99.90
8372;DHT22;4223;48.724;8.982;2022-07-12T11:37:49;26.70;99.90
8372;DHT22;4223;48.724;8.982;2022-07-12T11:40:21;26.70;99.90
8372;DHT22;4223;48.724;8.982;2022-07-12T11:42:54;26.90;99.90
8372;DHT22;4223;48.724;8.982;2022-07-12T11:45:22;26.90;99.90
8372;DHT22;4223;48.724;8.982;2022-07-12T11:47:48;26.80;99.90
8372;DHT22;4223;48.724;8.982;2022-07-12T11:50:17;26.60;99.90
8372;DHT22;4223;48.724;8.982;2022-07-12T11:52:45;26.60;99.90
8372;DHT22;4223;48.724;8.982;2022-07-12T11:55:12;26.60;99.90
8372;DHT22;4223;48.724;8.982;2022-07-12T11:57:39;26.60;99.90
8372;DHT22;4223;48.724;8.982;2022-07-12T12:00:17;26.70;99.90
8372;DHT22;4223;48.724;8.982;2022-07-12T12:02:45;26.70;99.90
8372;DHT22;4223;48.724;8.982;2022-07-12T12:05:13;26.80;99.90
8372;DHT22;4223;48.724;8.982;2022-07-12T12:07:40;26.70;99.90
8372;DHT22;4223;48.724;8.982;2022-07-12T12:10:12;26.60;99.90
8372;DHT22;4223;48.724;8.982;2022-07-12T12:12:42;26.50;99.90
8372;DHT22;4223;48.724;8.982;2022-07-12T12:15:10;26.70;99.90
8372;DHT22;4223;48.724;8.982;2022-07-12T12:17:44;26.90;99.90
8372;DHT22;4223;48.724;8.982;2022-07-12T12:20:14;26.80;99.90
8372;DHT22;4223;48.724;8.982;2022-07-12T12:22:42;26.90;99.90
8372;DHT22;4223;48.724;8.982;2022-07-12T12:25:09;26.90;99.90
8372;DHT22;4223;48.724;8.982;2022-07-12T12:27:46;26.50;99.90
8372;DHT22;4223;48.724;8.982;2022-07-12T12:30:15;26.40;99.90
8372;DHT22;4223;48.724;8.982;2022-07-12T12:32:48;26.40;99.90
8372;DHT22;4223;48.724;8.982;2022-07-12T12:35:17;26.40;99.90
8372;DHT22;4223;48.724;8.982;2022-07-12T12:37:55;26.10;99.90
8372;DHT22;4223;48.724;8.982;2022-07-12T12:40:26;26.40;99.90
8372;DHT22;4223;48.724;8.982;2022-07-12T12:43:04;25.60;99.90
8372;DHT22;4223;48.724;8.982;2022-07-12T12:45:32;25.60;99.90
8372;DHT22;4223;48.724;8.982;2022-07-12T12:48:02;26.10;99.90
8372;DHT22;4223;48.724;8.982;2022-07-12T12:50:39;26.20;99.90
8372;DHT22;4223;48.724;8.982;2022-07-12T12:53:08;26.40;99.90
8372;DHT22;4223;48.724;8.982;2022-07-12T12:55:35;26.60;99.90
8372;DHT22;4223;48.724;8.982;2022-07-12T12:58:02;26.60;99.90
8372;DHT22;4223;48.724;8.982;2022-07-12T13:00:29;26.50;99.90
8372;DHT22;4223;48.724;8.982;2022-07-12T13:02:57;26.30;99.90
8372;DHT22;4223;48.724;8.982;2022-07-12T13:05:27;26.40;99.90
8372;DHT22;4223;48.724;8.982;2022-07-12T13:07:54;26.60;99.90
8372;DHT22;4223;48.724;8.982;2022-07-12T13:10:21;26.80;99.90
8372;DHT22;4223;48.724;8.982;2022-07-12T13:12:48;26.80;99.90
8372;DHT22;4223;48.724;8.982;2022-07-12T13:15:15;26.70;99.90
8372;DHT22;4223;48.724;8.982;2022-07-12T13:17:42;26.30;99.90
8372;DHT22;4223;48.724;8.982;2022-07-12T13:20:10;26.50;99.90
8372;DHT22;4223;48.724;8.982;2022-07-12T13:22:40;26.50;99.90
8372;DHT22;4223;48.724;8.982;2022-07-12T13:25:08;26.50;99.90
8372;DHT22;4223;48.724;8.982;2022-07-12T13:27:35;26.60;99.90
8372;DHT22;4223;48.724;8.982;2022-07-12T13:30:02;26.70;99.90
8372;DHT22;4223;48.724;8.982;2022-07-12T13:32:29;26.70;99.90
8372;DHT22;4223;48.724;8.982;2022-07-12T13:34:56;26.70;99.90
8372;DHT22;4223;48.724;8.982;2022-07-12T13:37:24;26.60;99.90
8372;DHT22;4223;48.724;8.982;2022-07-12T13:39:53;26.60;99.90
8372;DHT22;4223;48.724;8.982;2022-07-12T13:42:41;26.50;99.90
8372;DHT22;4223;48.724;8.982;2022-07-12T13:45:10;26.50;99.90
8372;DHT22;4223;48.724;8.982;2022-07-12T13:47:37;26.30;99.90
8372;DHT22;4223;48.724;8.982;2022-07-12T13:50:06;26.50;99.90
8372;DHT22;4223;48.724;8.982;2022-07-12T13:52:33;26.70;99.90
8372;DHT22;4223;48.724;8.982;2022-07-12T13:55:02;26.70;99.90
8372;DHT22;4223;48.724;8.982;2022-07-12T13:57:31;26.80;99.90
8372;DHT22;4223;48.724;8.982;2022-07-12T13:59:58;26.60;99.90
8372;DHT22;4223;48.724;8.982;2022-07-12T14:02:25;26.70;99.90
8372;DHT22;4223;48.724;8.982;2022-07-12T14:04:52;27.00;99.90
8372;DHT22;4223;48.724;8.982;2022-07-12T14:07:19;27.00;99.90
8372;DHT22;4223;48.724;8.982;2022-07-12T14:09:46;26.80;99.90
8372;DHT22;4223;48.724;8.982;2022-07-12T14:12:15;26.70;99.90
8372;DHT22;4223;48.724;8.982;2022-07-12T14:14:41;26.50;99.90
8372;DHT22;4223;48.724;8.982;2022-07-12T14:17:26;26.60;99.90
8372;DHT22;4223;48.724;8.982;2022-07-12T14:19:53;26.50;99.90
8372;DHT22;4223;48.724;8.982;2022-07-12T14:22:21;26.30;99.90
8372;DHT22;4223;48.724;8.982;2022-07-12T14:24:48;26.40;99.90
8372;DHT22;4223;48.724;8.982;2022-07-12T14:27:16;26.30;99.90
8372;DHT22;4223;48.724;8.982;2022-07-12T14:29:43;26.30;99.90
8372;DHT22;4223;48.724;8.982;2022-07-12T14:32:10;26.50;99.90
8372;DHT22;4223;48.724;8.982;2022-07-12T14:34:37;26.40;99.90
8372;DHT22;4223;48.724;8.982;2022-07-12T14:37:04;26.30;99.90
8372;DHT22;4223;48.724;8.982;2022-07-12T14:39:30;26.20;99.90
8372;DHT22;4223;48.724;8.982;2022-07-12T14:41:57;26.10;99.90
8372;DHT22;4223;48.724;8.982;2022-07-12T14:44:26;26.20;99.90
8372;DHT22;4223;48.724;8.982;2022-07-12T14:46:53;26.20;99.90
8372;DHT22;4223;48.724;8.982;2022-07-12T14:49:22;26.30;99.90
8372;DHT22;4223;48.724;8.982;2022-07-12T14:51:49;26.30;99.90
8372;DHT22;4223;48.724;8.982;2022-07-12T14:54:17;26.40;99.90
8372;DHT22;4223;48.724;8.982;2022-07-12T14:56:44;26.60;99.90
8372;DHT22;4223;48.724;8.982;2022-07-12T14:59:11;26.60;99.90
8372;DHT22;4223;48.724;8.982;2022-07-12T15:01:39;26.50;99.90
8372;DHT22;4223;48.724;8.982;2022-07-12T15:04:06;26.50;99.90
8372;DHT22;4223;48.724;8.982;2022-07-12T15:06:33;26.50;99.90
8372;DHT22;4223;48.724;8.982;2022-07-12T15:09:00;26.50;99.90
8372;DHT22;4223;48.724;8.982;2022-07-12T15:11:27;26.60;99.90
8372;DHT22;4223;48.724;8.982;2022-07-12T15:13:54;26.60;99.90
8372;DHT22;4223;48.724;8.982;2022-07-12T15:16:21;26.40;99.90
8372;DHT22;4223;48.724;8.982;2022-07-12T15:18:49;26.30;99.90
8372;DHT22;4223;48.724;8.982;2022-07-12T15:21:16;26.30;99.90
8372;DHT22;4223;48.724;8.982;2022-07-12T15:23:43;26.30;99.90
8372;DHT22;4223;48.724;8.982;2022-07-12T15:26:09;26.30;99.90
8372;DHT22;4223;48.724;8.982;2022-07-12T15:28:49;26.30;99.90
8372;DHT22;4223;48.724;8.982;2022-07-12T15:31:16;26.50;99.90
8372;DHT22;4223;48.724;8.982;2022-07-12T15:33:43;26.60;99.90
8372;DHT22;4223;48.724;8.982;2022-07-12T15:36:12;26.60;99.90
8372;DHT22;4223;48.724;8.982;2022-07-12T15:38:40;26.60;99.90
8372;DHT22;4223;48.724;8.982;2022-07-12T15:41:08;26.50;99.90
8372;DHT22;4223;48.724;8.982;2022-07-12T15:43:36;26.40;99.90
8372;DHT22;4223;48.724;8.982;2022-07-12T15:46:05;26.40;99.90
8372;DHT22;4223;48.724;8.982;2022-07-12T15:48:32;26.40;99.90
8372;DHT22;4223;48.724;8.982;2022-07-12T15:50:59;26.40;99.90
8372;DHT22;4223;48.724;8.982;2022-07-12T15:53:27;26.30;99.90
8372;DHT22;4223;48.724;8.982;2022-07-12T15:55:55;26.50;99.90
8372;DHT22;4223;48.724;8.982;2022-07-12T15:58:26;26.50;99.90
8372;DHT22;4223;48.724;8.982;2022-07-12T16:00:54;26.40;99.90
8372;DHT22;4223;48.724;8.982;2022-07-12T16:03:21;26.10;99.90
8372;DHT22;4223;48.724;8.982;2022-07-12T16:05:48;26.20;99.90
8372;DHT22;4223;48.724;8.982;2022-07-12T16:08:15;26.50;99.90
8372;DHT22;4223;48.724;8.982;2022-07-12T16:10:47;26.70;99.90
8372;DHT22;4223;48.724;8.982;2022-07-12T16:13:14;26.80;99.90